Time;durP1;ratioP1;P1;durP2;ratioP2;P2;SDS_P1;SDS_P2;PMS_P1;PMS_P2;Temp;Humidity;BMP_temperature;BMP_pressure;BME280_temperature;BME280_humidity;BME280_pressure;Samples;Min_cycle;Max_cycle;Signal;HPM_P1;HPM_P2
2023/03/08 00:00:42;;;;;;;1.33;1.33;;;5.40;99.90;;;;;;5031210;28;20025;-45
2023/03/08 00:03:13;;;;;;;1.85;1.60;;;5.40;99.90;;;;;;5031369;28;20105;-41
2023/03/08 00:05:38;;;;;;;1.42;1.33;;;5.40;99.90;;;;;;5030395;28;20104;-41
2023/03/08 00:08:04;;;;;;;1.73;1.63;;;5.40;99.90;;;;;;5031555;28;20100;-47
2023/03/08 00:10:29;;;;;;;2.50;1.40;;;5.50;99.90;;;;;;5030915;28;20091;-41
2023/03/08 00:12:55;;;;;;;1.80;1.70;;;5.40;99.90;;;;;;5031178;28;20049;-41
2023/03/08 00:15:20;;;;;;;1.17;1.17;;;5.30;99.90;;;;;;5048879;23;20049;-50
2023/03/08 00:17:46;;;;;;;1.77;1.67;;;5.50;99.90;;;;;;5029116;28;20029;-47
2023/03/08 00:20:12;;;;;;;1.58;1.48;;;5.40;99.90;;;;;;5031403;28;20037;-47
2023/03/08 00:22:39;;;;;;;1.70;1.60;;;5.40;99.90;;;;;;5029510;28;20468;-48
2023/03/08 00:25:07;;;;;;;1.67;1.58;;;5.30;99.90;;;;;;5028120;28;20413;-51
2023/03/08 00:27:33;;;;;;;2.22;1.85;;;5.30;99.90;;;;;;5029064;28;20022;-50
2023/03/08 00:29:58;;;;;;;1.70;1.60;;;5.30;99.90;;;;;;5030775;28;20030;-48
2023/03/08 00:32:25;;;;;;;15.98;11.68;;;5.30;99.90;;;;;;5028407;28;20497;-49
2023/03/08 00:34:51;;;;;;;12.50;8.23;;;5.30;99.90;;;;;;5030619;28;20083;-51
2023/03/08 00:37:16;;;;;;;46.80;31.13;;;5.30;99.90;;;;;;5030810;28;20529;-46
2023/03/08 00:39:42;;;;;;;6.70;5.65;;;5.30;99.90;;;;;;5030963;28;20034;-48
2023/03/08 00:42:07;;;;;;;1.70;1.60;;;5.40;99.90;;;;;;5030776;28;20026;-51
2023/03/08 00:44:33;;;;;;;1.83;1.73;;;5.40;99.90;;;;;;5031139;28;20171;-50
2023/03/08 00:46:59;;;;;;;2.22;2.03;;;5.30;99.90;;;;;;5030763;28;20043;-47
2023/03/08 00:49:25;;;;;;;1.75;1.65;;;5.40;99.90;;;;;;5029506;28;20048;-46
2023/03/08 00:51:50;;;;;;;1.80;1.70;;;5.40;99.90;;;;;;5030988;28;20036;-46
2023/03/08 00:54:16;;;;;;;1.77;1.67;;;5.30;99.90;;;;;;5030809;28;20471;-46
2023/03/08 00:56:41;;;;;;;1.80;1.70;;;5.30;99.90;;;;;;5030510;28;20042;-51
2023/03/08 00:59:07;;;;;;;2.15;1.95;;;5.30;99.90;;;;;;5030653;28;20029;-49
2023/03/08 01:01:32;;;;;;;1.83;1.73;;;5.30;99.90;;;;;;5029550;28;20021;-47
2023/03/08 01:03:58;;;;;;;1.67;1.58;;;5.30;99.90;;;;;;5031055;28;20057;-48
2023/03/08 01:06:24;;;;;;;2.70;2.22;;;5.40;99.90;;;;;;5029489;28;20037;-49
2023/03/08 01:08:50;;;;;;;1.85;1.75;;;5.40;99.90;;;;;;5031223;28;20075;-50
2023/03/08 01:11:25;;;;;;;1.95;1.60;;;5.50;99.90;;;;;;5034268;28;20448;-50
2023/03/08 01:13:52;;;;;;;4.95;1.70;;;5.40;99.90;;;;;;5034596;28;20090;-49
2023/03/08 01:16:22;;;;;;;1.90;1.80;;;5.40;99.90;;;;;;5034130;28;20029;-52
2023/03/08 01:18:47;;;;;;;2.38;2.17;;;5.30;99.90;;;;;;5034168;28;20068;-49
2023/03/08 01:21:13;;;;;;;1.90;1.80;;;5.40;99.90;;;;;;5034134;28;20061;-50
2023/03/08 01:23:40;;;;;;;1.90;1.80;;;5.30;99.90;;;;;;5034140;28;20025;-51
2023/03/08 01:26:09;;;;;;;1.80;1.70;;;5.40;99.90;;;;;;5034065;28;20044;-48
2023/03/08 01:28:35;;;;;;;1.73;1.63;;;5.40;99.90;;;;;;5034137;28;20083;-48
2023/03/08 01:31:11;;;;;;;1.77;1.60;;;5.40;99.90;;;;;;5034553;28;20226;-46
2023/03/08 01:33:36;;;;;;;2.25;2.05;;;5.40;99.90;;;;;;5034608;28;20032;-49
2023/03/08 01:36:04;;;;;;;1.67;1.58;;;5.30;99.90;;;;;;5034515;28;20029;-46
2023/03/08 01:38:30;;;;;;;1.83;1.45;;;5.20;99.90;;;;;;5032777;28;20031;-47
2023/03/08 01:40:57;;;;;;;1.52;1.45;;;5.20;99.90;;;;;;5034297;28;20445;-49
2023/03/08 01:43:22;;;;;;;1.58;1.48;;;5.20;99.90;;;;;;5033941;28;20013;-47
2023/03/08 01:46:06;;;;;;;2.90;1.65;;;5.20;99.90;;;;;;5033943;28;20032;-45
2023/03/08 01:48:37;;;;;;;1.80;1.50;;;5.20;99.90;;;;;;5033593;28;20029;-48
2023/03/08 01:51:05;;;;;;;1.42;1.20;;;5.20;99.90;;;;;;5032606;28;20382;-52
2023/03/08 01:53:33;;;;;;;2.58;1.80;;;5.20;99.90;;;;;;5033509;28;20155;-50
2023/03/08 01:55:59;;;;;;;2.85;2.55;;;5.20;99.90;;;;;;5032089;28;20022;-50
2023/03/08 01:58:25;;;;;;;3.58;2.88;;;5.20;99.90;;;;;;5032225;28;20071;-48
2023/03/08 02:00:51;;;;;;;3.33;3.03;;;5.10;99.90;;;;;;5033348;28;20021;-49
2023/03/08 02:03:16;;;;;;;2.63;2.42;;;5.00;99.90;;;;;;5033534;28;20021;-56
2023/03/08 02:05:43;;;;;;;3.08;2.65;;;4.90;99.90;;;;;;5033281;28;20026;-48
2023/03/08 02:08:08;;;;;;;3.50;3.15;;;4.90;99.90;;;;;;5033209;28;20503;-50
2023/03/08 02:10:35;;;;;;;3.08;2.78;;;4.90;99.90;;;;;;5033369;28;20228;-47
2023/03/08 02:13:04;;;;;;;3.25;2.70;;;4.90;99.90;;;;;;5033464;28;20033;-47
2023/03/08 02:15:29;;;;;;;3.10;2.80;;;4.90;99.90;;;;;;5033049;28;20080;-48
2023/03/08 02:17:55;;;;;;;3.28;2.80;;;4.90;99.90;;;;;;5032854;28;20029;-51
2023/03/08 02:20:34;;;;;;;3.33;2.70;;;4.80;99.90;;;;;;5032515;28;20043;-43
2023/03/08 02:23:19;;;;;;;3.72;3.17;;;4.80;99.90;;;;;;5033033;28;20021;-48
2023/03/08 02:26:00;;;;;;;3.13;2.92;;;4.80;99.90;;;;;;5032862;28;20389;-50
2023/03/08 02:28:27;;;;;;;3.10;2.80;;;4.80;99.90;;;;;;5033221;28;20049;-50
2023/03/08 02:30:54;;;;;;;4.38;2.70;;;4.80;99.90;;;;;;5032816;28;20029;-49
2023/03/08 02:33:21;;;;;;;4.43;3.00;;;4.80;99.90;;;;;;5032656;28;20067;-49
2023/03/08 02:35:46;;;;;;;4.85;3.30;;;4.70;99.90;;;;;;5032623;28;20108;-49
2023/03/08 02:38:15;;;;;;;3.35;3.00;;;4.70;99.90;;;;;;5031259;28;20484;-49
2023/03/08 02:40:41;;;;;;;3.92;3.35;;;4.70;99.90;;;;;;5032997;28;20052;-51
2023/03/08 02:43:07;;;;;;;4.57;3.25;;;4.70;99.90;;;;;;5032632;28;20039;-51
2023/03/08 02:45:33;;;;;;;4.78;4.28;;;4.70;99.90;;;;;;5032326;28;20116;-52
2023/03/08 02:48:00;;;;;;;6.22;4.20;;;4.70;99.90;;;;;;5032430;28;20028;-49
2023/03/08 02:50:26;;;;;;;7.45;4.25;;;4.70;99.90;;;;;;5032423;28;20030;-50
2023/03/08 02:52:51;;;;;;;4.57;4.18;;;4.70;99.90;;;;;;5032266;28;20033;-49
2023/03/08 02:55:17;;;;;;;4.90;4.35;;;4.80;99.90;;;;;;5032041;28;20086;-49
2023/03/08 02:57:42;;;;;;;7.50;4.88;;;4.80;99.90;;;;;;5032076;28;20051;-48
2023/03/08 03:00:09;;;;;;;7.30;5.93;;;4.80;99.90;;;;;;5030824;28;20032;-53
2023/03/08 03:02:35;;;;;;;11.00;7.88;;;4.90;99.90;;;;;;5032321;28;20029;-51
2023/03/08 03:05:06;;;;;;;12.27;8.10;;;5.10;99.90;;;;;;5031893;28;20034;-51
2023/03/08 03:07:36;;;;;;;13.02;8.85;;;5.20;99.90;;;;;;5031838;28;20370;-47
2023/03/08 03:10:03;;;;;;;16.50;9.90;;;5.20;99.90;;;;;;5031961;28;20457;-47
2023/03/08 03:12:29;;;;;;;11.85;8.63;;;5.20;99.90;;;;;;5030497;28;20079;-46
2023/03/08 03:14:55;;;;;;;14.70;9.18;;;5.30;99.90;;;;;;5031735;28;20022;-51
2023/03/08 03:17:20;;;;;;;15.32;9.57;;;5.30;99.90;;;;;;5032326;28;20041;-46
2023/03/08 03:19:46;;;;;;;14.00;8.68;;;5.30;99.90;;;;;;5030324;28;20117;-46
2023/03/08 03:22:12;;;;;;;14.15;8.88;;;5.30;99.90;;;;;;5030506;28;20049;-46
2023/03/08 03:24:37;;;;;;;14.90;9.73;;;5.30;99.90;;;;;;5031872;28;20029;-51
2023/03/08 03:27:03;;;;;;;13.63;9.00;;;5.30;99.90;;;;;;5031636;28;20469;-48
2023/03/08 03:29:28;;;;;;;13.60;9.38;;;5.20;99.90;;;;;;5031706;28;20061;-49
2023/03/08 03:31:54;;;;;;;13.85;9.48;;;5.30;99.90;;;;;;5030688;28;20399;-48
2023/03/08 03:34:20;;;;;;;14.68;9.27;;;5.20;99.90;;;;;;5032000;28;20108;-47
2023/03/08 03:36:45;;;;;;;12.45;8.48;;;5.20;99.90;;;;;;5031580;28;20036;-50
2023/03/08 03:39:11;;;;;;;13.80;9.77;;;5.20;99.90;;;;;;5031349;28;20033;-48
2023/03/08 03:41:36;;;;;;;15.45;9.07;;;5.30;99.90;;;;;;5031523;28;20029;-47
2023/03/08 03:44:02;;;;;;;15.82;9.43;;;5.30;99.90;;;;;;5031507;28;20029;-47
2023/03/08 03:46:27;;;;;;;18.85;9.63;;;5.30;99.90;;;;;;5031421;28;20022;-47
2023/03/08 03:48:53;;;;;;;14.70;9.35;;;5.30;99.90;;;;;;5031549;28;20032;-47
2023/03/08 03:51:20;;;;;;;12.77;8.85;;;5.40;99.90;;;;;;5030155;28;20025;-50
2023/03/08 03:53:47;;;;;;;12.07;8.68;;;5.30;99.90;;;;;;5031259;28;20129;-46
2023/03/08 03:56:17;;;;;;;15.68;9.23;;;5.30;99.90;;;;;;5029922;28;20030;-46
2023/03/08 03:58:43;;;;;;;13.40;9.48;;;5.30;99.90;;;;;;5031295;28;20531;-51
2023/03/08 04:01:19;;;;;;;18.73;10.68;;;5.40;99.90;;;;;;5031276;28;20057;-48
2023/03/08 04:03:46;;;;;;;13.52;8.45;;;5.40;99.90;;;;;;5030073;28;20100;-48
2023/03/08 04:06:23;;;;;;;13.85;8.90;;;5.40;99.90;;;;;;5031348;28;20446;-51
2023/03/08 04:08:51;;;;;;;15.88;9.88;;;5.40;99.90;;;;;;5029869;28;20069;-47
2023/03/08 04:11:20;;;;;;;16.73;9.30;;;5.40;99.90;;;;;;5031277;28;20057;-48
2023/03/08 04:13:45;;;;;;;13.77;9.13;;;5.40;99.90;;;;;;5029833;28;20025;-50
2023/03/08 04:16:20;;;;;;;14.93;8.80;;;5.40;99.90;;;;;;5030870;28;20040;-47
2023/03/08 04:18:46;;;;;;;17.83;10.25;;;5.40;99.90;;;;;;5031563;28;20072;-47
2023/03/08 04:21:13;;;;;;;13.20;9.32;;;5.40;99.90;;;;;;5031003;28;20103;-51
2023/03/08 04:23:39;;;;;;;13.02;8.73;;;5.40;99.90;;;;;;5029778;28;20022;-50
2023/03/08 04:26:06;;;;;;;13.65;8.95;;;5.40;99.90;;;;;;5029785;28;20025;-48
2023/03/08 04:28:32;;;;;;;13.77;9.15;;;5.40;99.90;;;;;;5029685;28;20026;-48
2023/03/08 04:30:58;;;;;;;14.05;8.85;;;5.40;99.90;;;;;;5031099;28;20037;-51
2023/03/08 04:33:24;;;;;;;16.73;9.98;;;5.40;99.90;;;;;;5030944;28;20120;-52
2023/03/08 04:35:50;;;;;;;14.15;8.98;;;5.40;99.90;;;;;;5030792;28;20112;-46
2023/03/08 04:38:16;;;;;;;15.32;10.02;;;5.40;99.90;;;;;;5030861;28;20029;-47
2023/03/08 04:41:00;;;;;;;13.80;8.95;;;5.40;99.90;;;;;;5030938;28;20509;-47
2023/03/08 04:43:26;;;;;;;12.85;8.63;;;5.40;99.90;;;;;;5032436;28;20105;-46
2023/03/08 04:45:52;;;;;;;17.90;9.27;;;5.40;99.90;;;;;;5034602;28;20540;-46
2023/03/08 04:48:17;;;;;;;17.67;10.15;;;5.30;99.90;;;;;;5034940;28;20029;-47
2023/03/08 04:50:43;;;;;;;17.17;9.80;;;5.30;99.90;;;;;;5034730;28;20067;-50
2023/03/08 04:53:08;;;;;;;16.90;9.18;;;5.30;99.90;;;;;;5034903;28;20045;-47
2023/03/08 04:55:37;;;;;;;15.13;10.20;;;5.20;99.90;;;;;;5034951;28;20029;-48
2023/03/08 04:58:02;;;;;;;15.05;9.25;;;5.30;99.90;;;;;;5035123;28;20037;-47
2023/03/08 05:00:28;;;;;;;15.07;9.63;;;5.30;99.90;;;;;;5033413;28;20389;-53
2023/03/08 05:02:53;;;;;;;20.35;10.10;;;5.30;99.90;;;;;;5034550;28;20508;-54
2023/03/08 05:05:19;;;;;;;14.50;9.43;;;5.30;99.90;;;;;;5034249;28;20033;-49
2023/03/08 05:07:44;;;;;;;16.20;9.57;;;5.30;99.90;;;;;;5034434;28;20025;-49
2023/03/08 05:10:10;;;;;;;15.15;9.82;;;5.30;99.90;;;;;;5033212;28;20029;-51
2023/03/08 05:12:35;;;;;;;14.90;9.52;;;5.30;99.90;;;;;;5034252;28;20024;-51
2023/03/08 05:15:01;;;;;;;12.43;8.68;;;5.30;99.90;;;;;;5033867;28;20038;-47
2023/03/08 05:17:27;;;;;;;14.02;9.30;;;5.30;99.90;;;;;;5035405;28;20033;-47
2023/03/08 05:19:52;;;;;;;15.07;9.48;;;5.30;99.90;;;;;;5034999;28;20057;-46
2023/03/08 05:22:18;;;;;;;13.38;9.13;;;5.30;99.90;;;;;;5033237;28;20500;-53
2023/03/08 05:24:45;;;;;;;15.15;9.48;;;5.30;99.90;;;;;;5034164;28;20100;-51
2023/03/08 05:27:10;;;;;;;15.38;8.90;;;5.30;99.90;;;;;;5033936;28;20028;-52
2023/03/08 05:29:36;;;;;;;18.20;9.32;;;5.30;99.90;;;;;;5033723;28;20492;-49
2023/03/08 05:32:02;;;;;;;14.57;8.93;;;5.30;99.90;;;;;;5033937;28;20029;-52
2023/03/08 05:34:29;;;;;;;16.60;9.13;;;5.30;99.90;;;;;;5033773;28;20029;-50
2023/03/08 05:36:54;;;;;;;16.00;9.20;;;5.30;99.90;;;;;;5032642;28;20536;-47
2023/03/08 05:39:20;;;;;;;13.75;9.00;;;5.30;99.90;;;;;;5033595;28;20029;-46
2023/03/08 05:41:46;;;;;;;16.17;10.02;;;5.40;99.90;;;;;;5032293;28;20029;-47
2023/03/08 05:44:11;;;;;;;14.52;9.05;;;5.30;99.90;;;;;;5033646;28;20100;-48
2023/03/08 05:46:37;;;;;;;13.30;9.32;;;5.20;99.90;;;;;;5032160;28;20026;-52
2023/03/08 05:49:04;;;;;;;13.10;9.07;;;5.30;99.90;;;;;;5033360;28;20021;-51
2023/03/08 05:51:30;;;;;;;19.98;8.98;;;5.20;99.90;;;;;;5033633;28;20117;-47
2023/03/08 05:53:55;;;;;;;13.73;9.65;;;5.20;99.90;;;;;;5032009;28;20087;-49
2023/03/08 05:56:22;;;;;;;11.73;8.85;;;5.30;99.90;;;;;;5032414;28;20117;-50
2023/03/08 05:58:48;;;;;;;14.82;9.73;;;5.20;99.90;;;;;;5033078;28;20493;-48
2023/03/08 06:01:19;;;;;;;14.93;9.60;;;5.20;99.90;;;;;;5033451;28;20087;-50
2023/03/08 06:03:47;;;;;;;12.57;9.52;;;5.30;99.90;;;;;;5033140;28;20104;-50
2023/03/08 06:06:12;;;;;;;11.90;8.18;;;5.30;99.90;;;;;;5031956;28;20061;-47
2023/03/08 06:08:38;;;;;;;11.15;8.45;;;5.30;99.90;;;;;;5033042;28;20442;-49
2023/03/08 06:11:04;;;;;;;12.35;8.63;;;5.20;99.90;;;;;;5033121;28;20037;-52
2023/03/08 06:13:30;;;;;;;15.02;9.55;;;5.20;99.90;;;;;;5032960;28;20098;-49
2023/03/08 06:15:59;;;;;;;14.85;8.73;;;5.20;99.90;;;;;;5033376;28;20476;-47
2023/03/08 06:18:26;;;;;;;16.00;9.18;;;5.20;99.90;;;;;;5033075;28;20079;-49
2023/03/08 06:21:13;;;;;;;18.00;9.68;;;5.20;99.90;;;;;;5031407;28;20037;-49
2023/03/08 06:23:38;;;;;;;16.90;9.07;;;5.10;99.90;;;;;;5032868;28;20477;-51
2023/03/08 06:26:06;;;;;;;12.98;9.27;;;5.00;99.90;;;;;;5032766;28;20041;-48
2023/03/08 06:28:31;;;;;;;14.32;9.82;;;4.80;99.90;;;;;;5032729;28;20032;-50
2023/03/08 06:30:58;;;;;;;16.48;10.18;;;4.80;99.90;;;;;;5032902;28;20029;-48
2023/03/08 06:33:29;;;;;;;17.80;10.55;;;4.70;99.90;;;;;;5032735;28;20064;-50
2023/03/08 06:36:00;;;;;;;14.32;9.20;;;4.70;99.90;;;;;;5033203;28;20106;-53
2023/03/08 06:38:27;;;;;;;18.88;11.07;;;4.60;99.90;;;;;;5032735;28;20366;-49
2023/03/08 06:40:53;;;;;;;21.80;10.85;;;4.60;99.90;;;;;;5032695;28;20040;-54
2023/03/08 06:43:19;;;;;;;19.08;10.63;;;4.60;99.90;;;;;;5032859;28;20018;-51
2023/03/08 06:45:44;;;;;;;17.70;10.45;;;4.80;99.90;;;;;;5032482;28;20046;-48
2023/03/08 06:48:10;;;;;;;16.10;10.02;;;4.80;99.90;;;;;;5032396;28;20096;-50
2023/03/08 06:50:36;;;;;;;17.33;10.32;;;4.80;99.90;;;;;;5031237;28;20171;-52
2023/03/08 06:53:01;;;;;;;17.17;9.80;;;4.80;99.90;;;;;;5032514;28;20421;-49
2023/03/08 06:55:27;;;;;;;19.58;11.55;;;4.90;99.90;;;;;;5032169;28;20256;-50
2023/03/08 06:57:54;;;;;;;16.58;10.65;;;4.80;99.90;;;;;;5032261;28;20037;-47
2023/03/08 07:00:21;;;;;;;19.75;11.23;;;4.90;99.90;;;;;;5032446;28;20409;-55
2023/03/08 07:02:47;;;;;;;15.73;10.68;;;4.80;99.90;;;;;;5030816;28;20017;-50
2023/03/08 07:05:14;;;;;;;18.98;10.63;;;4.80;99.90;;;;;;5031849;28;20091;-53
2023/03/08 07:07:39;;;;;;;15.93;10.65;;;4.80;99.90;;;;;;5031746;28;20056;-46
2023/03/08 07:10:05;;;;;;;21.92;11.27;;;4.80;99.90;;;;;;5032642;28;20450;-50
2023/03/08 07:12:31;;;;;;;19.50;10.27;;;4.90;99.90;;;;;;5032076;28;20032;-47
2023/03/08 07:14:57;;;;;;;25.73;11.02;;;4.90;99.90;;;;;;5031785;28;20104;-48
2023/03/08 07:17:23;;;;;;;18.15;11.55;;;4.90;99.90;;;;;;5032203;28;20484;-46
2023/03/08 07:19:49;;;;;;;21.55;11.77;;;4.90;99.90;;;;;;5031784;28;20042;-52
2023/03/08 07:22:14;;;;;;;15.13;9.60;;;4.90;99.90;;;;;;5031926;28;20091;-54
2023/03/08 07:24:40;;;;;;;19.27;11.57;;;4.90;99.90;;;;;;5032049;28;20481;-47
2023/03/08 07:27:06;;;;;;;18.80;11.65;;;4.90;99.90;;;;;;5031959;28;20032;-50
2023/03/08 07:29:31;;;;;;;20.83;12.32;;;4.80;99.90;;;;;;5031606;28;20034;-48
2023/03/08 07:31:56;;;;;;;19.85;11.55;;;4.80;99.90;;;;;;5031706;28;20031;-48
2023/03/08 07:34:22;;;;;;;20.08;11.75;;;4.70;99.90;;;;;;5031822;28;20056;-48
2023/03/08 07:36:49;;;;;;;19.20;11.85;;;4.80;99.90;;;;;;5031746;28;20393;-51
2023/03/08 07:39:16;;;;;;;19.63;11.38;;;4.70;99.90;;;;;;5031617;28;20022;-51
2023/03/08 07:41:41;;;;;;;21.88;12.18;;;4.70;99.90;;;;;;5030545;28;20547;-54
2023/03/08 07:44:07;;;;;;;21.17;12.48;;;4.70;99.90;;;;;;5031724;28;20057;-51
2023/03/08 07:46:32;;;;;;;18.52;12.02;;;4.60;99.90;;;;;;5031520;28;20390;-52
2023/03/08 07:48:58;;;;;;;26.33;13.70;;;4.50;99.90;;;;;;5031343;28;20115;-51
2023/03/08 07:51:24;;;;;;;22.60;13.65;;;4.40;99.90;;;;;;5031658;28;20029;-52
2023/03/08 07:53:51;;;;;;;23.33;13.18;;;4.30;99.90;;;;;;5031532;28;20112;-51
2023/03/08 07:56:16;;;;;;;19.15;11.77;;;4.20;99.90;;;;;;5031513;28;20428;-51
2023/03/08 07:58:42;;;;;;;21.58;12.65;;;4.10;99.90;;;;;;5031308;28;20033;-50
2023/03/08 08:01:10;;;;;;;21.45;12.95;;;4.10;99.90;;;;;;5031467;28;20549;-52
2023/03/08 08:03:37;;;;;;;18.30;12.20;;;4.00;99.90;;;;;;5031269;28;20021;-50
2023/03/08 08:06:05;;;;;;;24.30;12.55;;;4.10;99.90;;;;;;5031367;28;20429;-50
2023/03/08 08:08:31;;;;;;;24.42;13.27;;;4.10;99.90;;;;;;5031236;28;20497;-47
2023/03/08 08:10:57;;;;;;;23.35;13.32;;;4.00;99.90;;;;;;5031479;28;20091;-49
2023/03/08 08:13:22;;;;;;;19.40;13.35;;;4.00;99.90;;;;;;5031317;28;20039;-52
2023/03/08 08:15:57;;;;;;;25.92;13.07;;;4.00;99.90;;;;;;5031137;28;20445;-48
2023/03/08 08:18:23;;;;;;;23.88;13.23;;;4.00;99.90;;;;;;5032513;28;20032;-49
2023/03/08 08:20:48;;;;;;;20.00;11.77;;;4.00;99.90;;;;;;5035247;28;20029;-49
2023/03/08 08:23:14;;;;;;;21.60;13.02;;;3.90;99.90;;;;;;5035700;28;20476;-51
2023/03/08 08:25:39;;;;;;;22.10;14.65;;;3.90;99.90;;;;;;5035341;28;20041;-49
2023/03/08 08:28:05;;;;;;;21.30;12.75;;;4.00;99.90;;;;;;5034802;28;20025;-50
2023/03/08 08:30:30;;;;;;;17.17;11.38;;;4.00;99.90;;;;;;5029346;28;20566;-49
2023/03/08 08:32:56;;;;;;;22.77;11.85;;;4.00;99.90;;;;;;5028116;28;20037;-48
2023/03/08 08:35:21;;;;;;;23.52;12.55;;;3.90;99.90;;;;;;5029491;28;20025;-50
2023/03/08 08:37:47;;;;;;;22.98;13.00;;;3.80;99.90;;;;;;5032716;28;20045;-50
2023/03/08 08:40:13;;;;;;;28.08;13.50;;;3.80;99.90;;;;;;5019017;28;20052;-48
2023/03/08 08:42:38;;;;;;;28.38;14.20;;;3.80;99.90;;;;;;5029141;28;20034;-53
2023/03/08 08:45:04;;;;;;;24.23;13.85;;;3.70;99.90;;;;;;5028521;28;20057;-51
2023/03/08 08:47:30;;;;;;;22.80;13.73;;;3.70;99.90;;;;;;5025617;28;20026;-52
2023/03/08 08:49:55;;;;;;;27.15;14.10;;;3.60;99.90;;;;;;5030624;28;20041;-48
2023/03/08 08:52:21;;;;;;;24.23;13.25;;;3.60;99.90;;;;;;5034456;28;20033;-49
2023/03/08 08:54:46;;;;;;;21.30;13.82;;;3.50;99.90;;;;;;5034595;28;20026;-51
2023/03/08 08:57:12;;;;;;;22.95;13.98;;;3.40;99.90;;;;;;5033671;28;20037;-52
2023/03/08 08:59:38;;;;;;;24.75;14.13;;;3.30;99.90;;;;;;5025990;28;20025;-48
2023/03/08 09:02:04;;;;;;;26.98;14.85;;;3.30;99.90;;;;;;5028788;28;20109;-48
2023/03/08 09:04:30;;;;;;;29.83;15.20;;;3.30;99.90;;;;;;5014845;28;20052;-50
2023/03/08 09:06:55;;;;;;;26.58;15.35;;;3.30;99.90;;;;;;5026383;28;20477;-47
2023/03/08 09:09:21;;;;;;;26.60;15.90;;;3.30;99.90;;;;;;5034366;28;20026;-50
2023/03/08 09:11:47;;;;;;;22.08;14.13;;;3.30;99.90;;;;;;5032900;28;20029;-45
2023/03/08 09:14:12;;;;;;;28.13;15.65;;;3.30;99.90;;;;;;5034635;28;20026;-50
2023/03/08 09:16:38;;;;;;;29.52;16.10;;;3.30;99.90;;;;;;5034096;28;20120;-45
2023/03/08 09:19:04;;;;;;;27.20;16.00;;;3.40;99.90;;;;;;5022241;28;20038;-47
2023/03/08 09:21:31;;;;;;;29.23;16.52;;;3.40;99.90;;;;;;5014751;28;20033;-46
2023/03/08 09:24:02;;;;;;;27.48;16.40;;;3.40;99.90;;;;;;5014725;28;20029;-48
2023/03/08 09:26:29;;;;;;;26.73;17.58;;;3.40;99.90;;;;;;5015101;28;20097;-46
2023/03/08 09:28:56;;;;;;;30.05;17.83;;;3.50;99.90;;;;;;5018019;28;20292;-46
2023/03/08 09:31:22;;;;;;;28.42;17.00;;;3.50;99.90;;;;;;5014801;28;20108;-50
2023/03/08 09:33:50;;;;;;;28.58;17.35;;;3.40;99.90;;;;;;5025536;28;20113;-53
2023/03/08 09:36:17;;;;;;;35.47;20.25;;;3.30;99.90;;;;;;5030527;28;20048;-47
2023/03/08 09:38:42;;;;;;;32.65;20.45;;;3.30;99.90;;;;;;5033710;28;20021;-49
2023/03/08 09:41:43;;;;;;;33.72;19.25;;;3.30;99.90;;;;;;5033816;28;20025;-48
2023/03/08 09:44:34;;;;;;;30.95;19.63;;;3.30;99.90;;;;;;5012826;28;20045;-52
2023/03/08 09:47:08;;;;;;;33.25;19.70;;;3.20;99.90;;;;;;5014412;28;20559;-50
2023/03/08 09:49:35;;;;;;;29.45;19.50;;;3.20;99.90;;;;;;5013946;28;20433;-46
2023/03/08 09:52:24;;;;;;;28.33;18.70;;;3.20;99.90;;;;;;5013975;28;20104;-48
2023/03/08 09:54:50;;;;;;;32.00;18.55;;;3.30;99.90;;;;;;5021320;28;20477;-48
2023/03/08 09:57:22;;;;;;;26.50;17.75;;;3.30;99.90;;;;;;5026623;28;20037;-44
2023/03/08 09:59:55;;;;;;;29.58;18.08;;;3.40;99.90;;;;;;5013631;28;20037;-45
2023/03/08 10:02:32;;;;;;;31.60;19.25;;;3.30;99.90;;;;;;5013893;28;20088;-45
2023/03/08 10:05:06;;;;;;;28.20;18.05;;;3.30;99.90;;;;;;5013641;28;20425;-47
2023/03/08 10:07:42;;;;;;;26.23;16.45;;;3.20;99.90;;;;;;5014126;28;20454;-46
2023/03/08 10:10:17;;;;;;;28.60;17.73;;;3.20;99.90;;;;;;5012766;28;20556;-48
2023/03/08 10:13:06;;;;;;;36.60;18.27;;;3.30;99.90;;;;;;5028367;28;20060;-42
2023/03/08 10:15:38;;;;;;;28.92;18.10;;;3.30;99.90;;;;;;5033215;28;20038;-44
2023/03/08 10:18:14;;;;;;;26.95;17.55;;;3.40;99.90;;;;;;5032792;28;20104;-45
2023/03/08 10:20:41;;;;;;;29.25;18.40;;;3.40;99.90;;;;;;5029816;28;20028;-46
2023/03/08 10:23:17;;;;;;;28.75;18.13;;;3.40;99.90;;;;;;5030331;28;20101;-50
2023/03/08 10:25:43;;;;;;;26.17;17.55;;;3.50;99.90;;;;;;5015057;28;20049;-44
2023/03/08 10:28:21;;;;;;;30.27;17.17;;;3.40;99.90;;;;;;5013126;28;20041;-46
2023/03/08 10:30:50;;;;;;;28.17;18.95;;;3.40;99.90;;;;;;5015943;28;20382;-48
2023/03/08 10:33:18;;;;;;;36.50;22.50;;;3.50;99.90;;;;;;5033330;28;20036;-48
2023/03/08 10:36:03;;;;;;;45.63;26.63;;;3.50;99.90;;;;;;5032300;28;20038;-45
2023/03/08 10:38:31;;;;;;;29.13;18.25;;;3.50;99.90;;;;;;5032837;28;20025;-46
2023/03/08 10:41:04;;;;;;;29.20;17.65;;;3.50;99.90;;;;;;5032279;28;20192;-48
2023/03/08 10:43:33;;;;;;;25.95;16.55;;;3.60;99.90;;;;;;5032777;28;20025;-47
2023/03/08 10:46:16;;;;;;;23.17;15.98;;;3.60;99.90;;;;;;5025890;28;20037;-47
2023/03/08 10:48:41;;;;;;;23.65;14.80;;;3.60;99.90;;;;;;5015672;28;20068;-47
2023/03/08 10:51:15;;;;;;;23.35;15.80;;;3.60;99.90;;;;;;5018424;28;20029;-48
2023/03/08 10:53:54;;;;;;;22.83;15.73;;;3.60;99.90;;;;;;5011309;28;20109;-47
2023/03/08 10:56:27;;;;;;;26.05;15.57;;;3.60;99.90;;;;;;5020789;28;20448;-45
2023/03/08 10:58:55;;;;;;;25.55;14.85;;;3.60;99.90;;;;;;5032413;28;20025;-47
2023/03/08 11:01:29;;;;;;;21.17;14.18;;;3.70;99.90;;;;;;5032266;28;20045;-48
2023/03/08 11:04:12;;;;;;;22.30;14.55;;;3.70;99.90;;;;;;5032753;28;20031;-47
2023/03/08 11:06:38;;;;;;;22.60;14.45;;;3.70;99.90;;;;;;5032216;28;20075;-45
2023/03/08 11:09:18;;;;;;;26.38;15.45;;;3.70;99.90;;;;;;5032096;28;20029;-49
2023/03/08 11:11:43;;;;;;;22.55;14.35;;;3.80;99.90;;;;;;5024487;28;20027;-52
2023/03/08 11:14:10;;;;;;;21.30;14.80;;;3.80;99.90;;;;;;5029913;28;20091;-46
2023/03/08 11:16:42;;;;;;;21.60;15.00;;;3.90;99.90;;;;;;5031860;28;20384;-48
2023/03/08 11:19:44;;;;;;;23.20;14.38;;;3.90;99.90;;;;;;5031470;28;20496;-53
2023/03/08 11:22:21;;;;;;;19.63;13.75;;;4.00;99.90;;;;;;5015970;28;20414;-49
2023/03/08 11:24:55;;;;;;;21.30;15.13;;;4.00;99.90;;;;;;5027384;28;20362;-46
2023/03/08 11:27:45;;;;;;;20.83;13.98;;;4.10;99.90;;;;;;5012716;28;20059;-44
2023/03/08 11:30:34;;;;;;;20.98;14.10;;;4.20;99.90;;;;;;5012302;28;20433;-46
2023/03/08 11:33:24;;;;;;;20.30;14.60;;;4.30;99.90;;;;;;5010780;28;20029;-53
2023/03/08 11:36:03;;;;;;;18.80;13.95;;;4.40;99.90;;;;;;5011782;28;20025;-50
2023/03/08 11:38:30;;;;;;;17.30;13.38;;;4.30;99.90;;;;;;5030034;28;20544;-46
2023/03/08 11:41:18;;;;;;;24.52;13.40;;;4.40;99.90;;;;;;5029682;28;20069;-53
2023/03/08 11:44:03;;;;;;;20.98;14.55;;;4.50;99.90;;;;;;5018163;28;20026;-50
2023/03/08 11:46:47;;;;;;;23.92;15.52;;;4.60;99.90;;;;;;5029676;28;20025;-50
2023/03/08 11:49:48;;;;;;;18.58;13.57;;;4.60;99.90;;;;;;5030839;28;20368;-52
2023/03/08 11:52:35;;;;;;;20.95;14.07;;;4.70;99.90;;;;;;5025951;28;20109;-47
2023/03/08 11:55:36;;;;;;;20.20;13.73;;;4.70;99.90;;;;;;5027173;28;20021;-51
2023/03/08 11:58:10;;;;;;;20.67;15.32;;;4.70;99.90;;;;;;5026504;28;20030;-50
2023/03/08 12:00:41;;;;;;;18.70;13.63;;;4.70;99.90;;;;;;5030996;28;20096;-49
2023/03/08 12:03:35;;;;;;;19.83;14.90;;;4.70;99.90;;;;;;5031025;28;20477;-47
2023/03/08 12:06:14;;;;;;;22.48;14.80;;;4.80;99.90;;;;;;5026636;28;20158;-51
2023/03/08 12:09:06;;;;;;;18.80;14.70;;;4.80;99.90;;;;;;5011844;28;20026;-52
2023/03/08 12:11:39;;;;;;;30.38;19.88;;;4.90;99.90;;;;;;5012673;28;20039;-48
2023/03/08 12:14:16;;;;;;;30.17;21.33;;;4.90;99.90;;;;;;5011430;28;20385;-51
2023/03/08 12:17:06;;;;;;;24.33;17.45;;;5.00;99.90;;;;;;5039066;23;20038;-51
2023/03/08 12:19:46;;;;;;;20.58;16.40;;;5.00;99.90;;;;;;5013107;28;20116;-50
2023/03/08 12:22:23;;;;;;;21.80;15.77;;;5.10;99.90;;;;;;5016792;28;20014;-49
2023/03/08 12:25:01;;;;;;;23.83;16.83;;;5.10;99.90;;;;;;5031165;28;20064;-50
2023/03/08 12:27:45;;;;;;;24.98;17.00;;;5.00;99.90;;;;;;5012709;28;20425;-51
2023/03/08 12:30:38;;;;;;;24.52;17.17;;;5.00;99.90;;;;;;5010440;28;20096;-48
2023/03/08 12:33:05;;;;;;;26.52;18.05;;;5.10;99.90;;;;;;5010121;28;20030;-49
2023/03/08 12:35:33;;;;;;;29.98;18.30;;;5.10;99.90;;;;;;5011215;28;20034;-52
2023/03/08 12:38:14;;;;;;;23.65;17.75;;;5.10;99.90;;;;;;5010780;28;20026;-46
2023/03/08 12:40:46;;;;;;;23.20;17.95;;;5.10;99.90;;;;;;5011243;28;20084;-53
2023/03/08 12:43:19;;;;;;;26.05;18.02;;;5.10;99.90;;;;;;5010868;28;20034;-49
2023/03/08 12:45:59;;;;;;;22.40;17.08;;;5.20;99.90;;;;;;5011280;28;20033;-49
2023/03/08 12:48:27;;;;;;;24.60;17.77;;;5.30;99.90;;;;;;5011218;28;20064;-47
2023/03/08 12:50:52;;;;;;;24.80;18.20;;;5.30;99.90;;;;;;5010245;28;20402;-50
2023/03/08 12:53:39;;;;;;;22.90;17.27;;;5.30;99.90;;;;;;5011375;28;20022;-48